Time;durP1;ratioP1;P1;durP2;ratioP2;P2;SDS_P1;SDS_P2;PMS_P1;PMS_P2;Temp;Humidity;BMP_temperature;BMP_pressure;BME280_temperature;BME280_humidity;BME280_pressure;Samples;Min_cycle;Max_cycle;Signal;HPM_P1;HPM_P2
2022/10/09 00:00:48;;;;;;;7.95;2.63;;;9.30;82.80;;;;;;5035052;28;20030;-78
2022/10/09 00:03:16;;;;;;;9.80;2.80;;;9.40;82.70;;;;;;5035160;28;20022;-77
2022/10/09 00:05:42;;;;;;;7.07;2.53;;;9.40;82.60;;;;;;5035104;28;20035;-77
2022/10/09 00:08:08;;;;;;;4.00;2.50;;;9.30;83.10;;;;;;5035005;28;20025;-77
2022/10/09 00:10:39;;;;;;;8.30;2.85;;;9.40;83.00;;;;;;5034915;28;20355;-78
2022/10/09 00:13:04;;;;;;;5.82;2.10;;;9.40;82.70;;;;;;5034988;28;20104;-76
2022/10/09 00:15:30;;;;;;;6.72;2.55;;;9.40;83.10;;;;;;5033412;28;20064;-78
2022/10/09 00:17:55;;;;;;;4.68;2.20;;;9.40;83.20;;;;;;5034699;28;20040;-78
2022/10/09 00:20:21;;;;;;;4.20;2.08;;;9.50;82.90;;;;;;5034844;28;20516;-78
2022/10/09 00:22:46;;;;;;;8.27;2.22;;;9.50;82.80;;;;;;5033947;28;20494;-79
2022/10/09 00:25:12;;;;;;;7.68;2.35;;;9.50;82.40;;;;;;5034682;28;20026;-79
2022/10/09 00:27:37;;;;;;;8.57;2.05;;;9.40;82.30;;;;;;5034626;28;20017;-78
2022/10/09 00:30:04;;;;;;;4.15;2.40;;;9.50;82.10;;;;;;5033905;28;20151;-79
2022/10/09 00:32:29;;;;;;;6.97;2.15;;;9.50;81.50;;;;;;5033161;28;20025;-78
2022/10/09 00:34:55;;;;;;;5.30;2.25;;;9.40;81.20;;;;;;5034348;28;20025;-79
2022/10/09 00:37:20;;;;;;;8.25;2.80;;;9.50;81.40;;;;;;5034321;28;20030;-78
2022/10/09 00:39:46;;;;;;;7.50;2.47;;;9.40;80.70;;;;;;5034356;28;20108;-78
2022/10/09 00:42:12;;;;;;;3.90;2.10;;;9.30;81.10;;;;;;5034375;28;20032;-78
2022/10/09 00:44:52;;;;;;;11.45;2.60;;;9.30;81.20;;;;;;5034308;28;20075;-78
2022/10/09 00:47:23;;;;;;;5.18;2.67;;;9.30;81.20;;;;;;5034280;28;20024;-79
2022/10/09 00:49:53;;;;;;;6.32;2.63;;;9.20;80.90;;;;;;5034271;28;20060;-78
2022/10/09 00:52:20;;;;;;;7.70;2.85;;;9.10;80.90;;;;;;5034265;28;20017;-78
2022/10/09 00:54:45;;;;;;;6.18;2.78;;;9.20;81.00;;;;;;5032783;28;20057;-79
2022/10/09 00:57:11;;;;;;;4.72;2.38;;;9.00;81.00;;;;;;5033914;28;20072;-78
2022/10/09 00:59:38;;;;;;;11.80;3.50;;;9.00;81.30;;;;;;5033894;28;20501;-78
2022/10/09 01:02:04;;;;;;;5.60;2.25;;;8.90;81.90;;;;;;5034014;28;20026;-78
2022/10/09 01:04:30;;;;;;;5.10;2.75;;;9.00;81.90;;;;;;5033993;28;20025;-78
2022/10/09 01:07:28;;;;;;;4.95;2.50;;;9.00;81.70;;;;;;5033977;28;20104;-79
2022/10/09 01:10:00;;;;;;;8.73;3.13;;;9.00;81.60;;;;;;5033324;28;20520;-79
2022/10/09 01:12:41;;;;;;;7.90;2.78;;;9.10;80.80;;;;;;5033794;28;20508;-79
2022/10/09 01:15:17;;;;;;;8.13;3.22;;;9.10;81.40;;;;;;5033772;28;20104;-79
2022/10/09 01:18:00;;;;;;;7.32;2.38;;;9.20;81.40;;;;;;5032448;28;20061;-79
2022/10/09 01:20:35;;;;;;;6.50;2.72;;;9.20;81.00;;;;;;5033578;28;20037;-79
2022/10/09 01:23:18;;;;;;;6.43;2.33;;;9.20;81.10;;;;;;5033547;28;20053;-79
2022/10/09 01:25:55;;;;;;;6.22;2.50;;;9.20;81.20;;;;;;5033627;28;20152;-78
2022/10/09 01:28:24;;;;;;;5.53;2.25;;;9.30;81.30;;;;;;5033415;28;20074;-79
2022/10/09 01:30:50;;;;;;;4.38;2.53;;;9.30;81.60;;;;;;5033528;28;20017;-79
2022/10/09 01:33:16;;;;;;;7.47;2.30;;;9.40;81.60;;;;;;5033037;28;20390;-80
2022/10/09 01:35:45;;;;;;;5.63;2.28;;;9.40;81.60;;;;;;5032642;28;20025;-79
2022/10/09 01:38:10;;;;;;;5.85;2.20;;;9.40;81.70;;;;;;5033279;28;20029;-79
2022/10/09 01:40:37;;;;;;;8.63;2.88;;;9.40;82.30;;;;;;5033385;28;20024;-79
2022/10/09 01:43:03;;;;;;;6.25;2.47;;;9.40;82.50;;;;;;5033330;28;20030;-78
2022/10/09 01:45:40;;;;;;;6.93;2.33;;;9.40;82.60;;;;;;5033276;28;20479;-78
2022/10/09 01:48:11;;;;;;;7.97;2.60;;;9.40;82.70;;;;;;5031918;28;20168;-78
2022/10/09 01:50:42;;;;;;;7.07;2.90;;;9.50;83.00;;;;;;5033266;28;20049;-78
2022/10/09 01:53:11;;;;;;;9.55;2.55;;;9.50;83.00;;;;;;5031549;28;20026;-78
2022/10/09 01:56:05;;;;;;;10.45;3.38;;;9.50;83.00;;;;;;5033181;28;20032;-78
2022/10/09 01:58:44;;;;;;;8.75;3.00;;;9.60;82.80;;;;;;5033155;28;20171;-78
2022/10/09 02:01:16;;;;;;;7.50;2.88;;;9.60;82.80;;;;;;5033060;28;20485;-78
2022/10/09 02:03:45;;;;;;;6.18;2.85;;;9.60;82.90;;;;;;5033150;28;20466;-78
2022/10/09 02:06:13;;;;;;;8.15;2.33;;;9.60;83.00;;;;;;5031910;28;20355;-77
2022/10/09 02:08:40;;;;;;;10.07;3.67;;;9.60;83.20;;;;;;5033026;28;20042;-77
2022/10/09 02:11:07;;;;;;;5.90;2.63;;;9.70;83.20;;;;;;5031788;28;20482;-77
2022/10/09 02:13:34;;;;;;;8.68;2.75;;;9.70;83.20;;;;;;5032903;28;20338;-77
2022/10/09 02:16:17;;;;;;;8.75;3.22;;;9.70;83.40;;;;;;5032845;28;20027;-77
2022/10/09 02:18:45;;;;;;;5.50;2.45;;;9.70;83.60;;;;;;5032869;28;20037;-77
2022/10/09 02:21:34;;;;;;;7.60;2.53;;;9.80;83.40;;;;;;5032815;28;20049;-77
2022/10/09 02:24:01;;;;;;;6.43;2.58;;;9.80;83.10;;;;;;5020678;28;20057;-78
2022/10/09 02:26:27;;;;;;;6.65;3.05;;;9.90;82.90;;;;;;5031555;28;20390;-78
2022/10/09 02:28:53;;;;;;;12.43;4.00;;;9.80;82.70;;;;;;5032867;28;20021;-78
2022/10/09 02:31:22;;;;;;;5.95;2.33;;;9.90;82.80;;;;;;5032820;28;20113;-78
2022/10/09 02:33:59;;;;;;;7.22;3.20;;;9.90;82.70;;;;;;5031455;28;20460;-77
2022/10/09 02:36:26;;;;;;;11.40;3.72;;;10.00;82.70;;;;;;5032759;28;20474;-78
2022/10/09 02:38:54;;;;;;;11.73;3.55;;;9.90;82.70;;;;;;5031742;28;20429;-77
2022/10/09 02:41:20;;;;;;;4.78;2.38;;;10.00;82.70;;;;;;5032725;28;20050;-78
2022/10/09 02:43:46;;;;;;;8.57;3.08;;;10.00;82.70;;;;;;5032706;28;20060;-78
2022/10/09 02:46:11;;;;;;;6.60;2.80;;;9.90;82.80;;;;;;5034771;28;20036;-78
2022/10/09 02:48:37;;;;;;;8.57;2.90;;;9.90;82.80;;;;;;5036570;28;20033;-77
2022/10/09 02:51:03;;;;;;;7.60;2.90;;;10.00;82.50;;;;;;5036426;28;20423;-78
2022/10/09 02:53:28;;;;;;;8.55;2.97;;;10.00;82.70;;;;;;5036455;28;20025;-78
2022/10/09 02:55:54;;;;;;;6.43;2.60;;;10.00;82.70;;;;;;5036429;28;20078;-76
2022/10/09 02:58:20;;;;;;;8.23;3.08;;;10.00;82.70;;;;;;5036291;28;20091;-77
2022/10/09 03:00:49;;;;;;;5.85;2.92;;;10.10;82.80;;;;;;5036337;28;20064;-77
2022/10/09 03:03:15;;;;;;;9.20;3.70;;;10.10;82.50;;;;;;5036225;28;20026;-78
2022/10/09 03:05:41;;;;;;;4.90;3.00;;;10.10;82.30;;;;;;5036210;28;20472;-78
2022/10/09 03:08:06;;;;;;;9.32;3.47;;;10.10;82.20;;;;;;5036130;28;20478;-78
2022/10/09 03:10:32;;;;;;;12.18;3.63;;;10.20;82.20;;;;;;5036110;28;20053;-76
2022/10/09 03:12:58;;;;;;;9.77;3.20;;;10.20;82.30;;;;;;5036059;28;20501;-77
2022/10/09 03:15:24;;;;;;;13.00;3.83;;;10.20;82.30;;;;;;5036008;28;20128;-77
2022/10/09 03:17:49;;;;;;;11.85;3.35;;;10.10;82.10;;;;;;5035933;28;20034;-77
2022/10/09 03:20:15;;;;;;;7.97;3.40;;;10.20;82.20;;;;;;5035958;28;20037;-77
2022/10/09 03:22:41;;;;;;;12.98;3.92;;;10.20;82.20;;;;;;5034401;28;20047;-77
2022/10/09 03:25:07;;;;;;;9.75;3.83;;;10.20;82.30;;;;;;5035738;28;20022;-78
2022/10/09 03:27:32;;;;;;;10.35;3.75;;;10.20;82.50;;;;;;5035897;28;20022;-77
2022/10/09 03:29:58;;;;;;;13.35;3.83;;;10.10;82.30;;;;;;5035793;28;20079;-78
2022/10/09 03:32:24;;;;;;;6.45;3.20;;;10.20;82.10;;;;;;5035654;28;20027;-77
2022/10/09 03:34:50;;;;;;;8.70;3.50;;;10.20;82.20;;;;;;5035635;28;20029;-77
2022/10/09 03:37:15;;;;;;;11.27;4.07;;;10.10;82.30;;;;;;5035525;28;20025;-77
2022/10/09 03:39:41;;;;;;;10.38;3.60;;;10.10;82.30;;;;;;5035555;28;20076;-77
2022/10/09 03:42:06;;;;;;;8.10;2.75;;;10.10;82.30;;;;;;5034417;28;20026;-77
2022/10/09 03:44:32;;;;;;;7.43;2.95;;;10.20;82.20;;;;;;5035431;28;20052;-77
2022/10/09 03:46:58;;;;;;;8.00;2.92;;;10.10;82.10;;;;;;5035438;28;20107;-77
2022/10/09 03:49:23;;;;;;;9.93;3.67;;;10.10;82.00;;;;;;5035376;28;20032;-77
2022/10/09 03:51:49;;;;;;;10.82;3.53;;;10.20;81.80;;;;;;5035400;28;20044;-77
2022/10/09 03:54:15;;;;;;;6.38;3.20;;;10.10;81.80;;;;;;5035280;28;20021;-77
2022/10/09 03:56:40;;;;;;;7.57;3.38;;;10.20;81.80;;;;;;5034478;28;20079;-78
2022/10/09 03:59:06;;;;;;;11.23;4.05;;;10.10;81.70;;;;;;5034627;28;20121;-77
2022/10/09 04:01:32;;;;;;;8.75;3.50;;;10.10;81.00;;;;;;5035106;28;20033;-77
2022/10/09 04:03:57;;;;;;;7.88;3.55;;;10.00;80.40;;;;;;5035275;28;20041;-77
2022/10/09 04:06:23;;;;;;;6.55;2.80;;;9.90;79.40;;;;;;5033698;28;20021;-77
2022/10/09 04:08:48;;;;;;;5.60;3.50;;;9.90;79.40;;;;;;5035040;28;20061;-78
2022/10/09 04:11:14;;;;;;;8.90;3.72;;;9.90;79.90;;;;;;5033635;28;20098;-79
2022/10/09 04:13:39;;;;;;;6.85;3.47;;;9.80;80.70;;;;;;5034808;28;20097;-78
2022/10/09 04:16:08;;;;;;;10.95;3.13;;;9.80;80.80;;;;;;5034781;28;20030;-78
2022/10/09 04:18:33;;;;;;;7.60;3.53;;;9.80;80.70;;;;;;5034668;28;20109;-78
2022/10/09 04:20:59;;;;;;;7.57;3.30;;;9.80;80.10;;;;;;5034714;28;20053;-78
2022/10/09 04:23:26;;;;;;;13.95;3.83;;;9.80;80.30;;;;;;5034799;28;20087;-78
2022/10/09 04:25:54;;;;;;;6.22;3.20;;;9.80;80.10;;;;;;5034866;28;20068;-78
2022/10/09 04:28:20;;;;;;;5.78;3.10;;;9.80;79.90;;;;;;5034593;28;20017;-78
2022/10/09 04:30:45;;;;;;;10.82;3.10;;;9.80;79.90;;;;;;5034654;28;20082;-77
2022/10/09 04:33:11;;;;;;;14.20;3.92;;;9.80;79.50;;;;;;5033240;28;20025;-78
2022/10/09 04:35:41;;;;;;;11.02;2.88;;;9.80;79.50;;;;;;5033927;28;20036;-78
2022/10/09 04:38:06;;;;;;;7.97;3.10;;;9.80;79.60;;;;;;5033190;28;20033;-78
2022/10/09 04:40:32;;;;;;;7.57;3.30;;;9.70;79.40;;;;;;5034488;28;20028;-78
2022/10/09 04:42:58;;;;;;;6.70;3.20;;;9.70;79.30;;;;;;5034316;28;20482;-78
2022/10/09 04:45:23;;;;;;;7.70;3.75;;;9.70;79.20;;;;;;5034263;28;20025;-77
2022/10/09 04:47:49;;;;;;;7.93;3.42;;;9.70;78.60;;;;;;5034281;28;20461;-78
2022/10/09 04:50:15;;;;;;;7.35;3.60;;;9.60;78.60;;;;;;5034181;28;20079;-77
2022/10/09 04:52:41;;;;;;;9.85;4.75;;;9.50;79.00;;;;;;5034238;28;20029;-78
2022/10/09 04:55:07;;;;;;;10.60;3.83;;;9.50;79.20;;;;;;5034131;28;20029;-78
2022/10/09 04:57:32;;;;;;;7.18;3.25;;;9.50;79.00;;;;;;5034010;28;20082;-78
2022/10/09 04:59:58;;;;;;;6.97;4.07;;;9.40;79.00;;;;;;5033963;28;20030;-79
2022/10/09 05:02:23;;;;;;;7.90;3.95;;;9.40;79.00;;;;;;5033940;28;20030;-79
2022/10/09 05:04:49;;;;;;;7.95;4.13;;;9.50;79.00;;;;;;5032579;28;20060;-79
2022/10/09 05:07:14;;;;;;;9.50;3.83;;;9.50;78.70;;;;;;5034030;28;20022;-78
2022/10/09 05:09:40;;;;;;;16.75;4.75;;;9.50;78.40;;;;;;5033854;28;20017;-79
2022/10/09 05:12:05;;;;;;;11.02;4.43;;;9.50;78.40;;;;;;5033879;28;20033;-78
2022/10/09 05:14:31;;;;;;;8.82;3.78;;;9.50;78.40;;;;;;5033624;28;20017;-77
2022/10/09 05:17:01;;;;;;;8.45;3.88;;;9.40;78.30;;;;;;5033650;28;20029;-78
2022/10/09 05:19:27;;;;;;;8.95;3.67;;;9.30;78.40;;;;;;5033688;28;20036;-77
2022/10/09 05:21:53;;;;;;;7.88;3.67;;;9.30;78.50;;;;;;5033472;28;20049;-77
2022/10/09 05:24:19;;;;;;;8.43;3.78;;;9.30;78.40;;;;;;5033607;28;20474;-77
2022/10/09 05:26:44;;;;;;;12.27;3.88;;;9.40;78.30;;;;;;5033509;28;20033;-77
2022/10/09 05:29:10;;;;;;;10.40;3.72;;;9.40;78.00;;;;;;5032159;28;20121;-77
2022/10/09 05:31:36;;;;;;;10.52;3.83;;;9.40;78.00;;;;;;5033313;28;20478;-77
2022/10/09 05:34:02;;;;;;;9.48;3.67;;;9.40;78.10;;;;;;5033411;28;20104;-77
2022/10/09 05:36:28;;;;;;;9.95;3.60;;;9.40;78.00;;;;;;5033318;28;20476;-77
2022/10/09 05:38:54;;;;;;;10.77;3.50;;;9.40;77.30;;;;;;5033348;28;20061;-77
2022/10/09 05:41:20;;;;;;;8.63;4.20;;;9.40;77.60;;;;;;5033378;28;20105;-78
2022/10/09 05:43:48;;;;;;;10.27;3.42;;;9.50;78.20;;;;;;5033107;28;20056;-77
2022/10/09 05:46:22;;;;;;;8.43;3.63;;;9.50;77.70;;;;;;5033378;28;20021;-78
2022/10/09 05:48:56;;;;;;;4.97;2.22;;;9.50;77.50;;;;;;5033363;28;20026;-77
2022/10/09 05:51:25;;;;;;;9.07;3.55;;;9.50;77.50;;;;;;5033191;28;20033;-76
2022/10/09 05:53:51;;;;;;;7.43;3.28;;;9.50;77.30;;;;;;5031696;28;20022;-76
2022/10/09 05:56:21;;;;;;;9.30;3.63;;;9.50;77.10;;;;;;5033040;28;20032;-76
2022/10/09 05:58:52;;;;;;;13.25;3.78;;;9.50;76.80;;;;;;5032941;28;20029;-75
2022/10/09 06:01:18;;;;;;;10.15;3.67;;;9.60;77.10;;;;;;5033096;28;20071;-76
2022/10/09 06:03:49;;;;;;;13.30;3.53;;;9.50;77.00;;;;;;5032999;28;20033;-75
2022/10/09 06:06:15;;;;;;;7.72;3.75;;;9.50;77.10;;;;;;5033010;28;20033;-75
2022/10/09 06:08:41;;;;;;;8.25;3.72;;;9.50;77.20;;;;;;5031459;28;20032;-75
2022/10/09 06:11:11;;;;;;;10.10;3.70;;;9.50;78.50;;;;;;5032814;28;20033;-76
2022/10/09 06:13:36;;;;;;;11.77;4.70;;;9.60;77.40;;;;;;5032840;28;20026;-76
2022/10/09 06:16:02;;;;;;;7.88;3.05;;;9.60;76.90;;;;;;5032960;28;20022;-76
2022/10/09 06:18:28;;;;;;;8.15;4.15;;;9.60;76.40;;;;;;5031593;28;20030;-77
2022/10/09 06:21:00;;;;;;;7.00;3.72;;;9.60;75.10;;;;;;5033325;28;20112;-77
2022/10/09 06:23:27;;;;;;;5.13;3.50;;;9.50;74.20;;;;;;5035651;28;20425;-77
2022/10/09 06:25:59;;;;;;;8.30;3.55;;;9.40;74.10;;;;;;5035763;28;20026;-77
2022/10/09 06:28:26;;;;;;;4.97;3.20;;;9.30;73.90;;;;;;5035729;28;20025;-77
2022/10/09 06:30:52;;;;;;;6.72;3.17;;;9.20;73.70;;;;;;5035652;28;20087;-77
2022/10/09 06:33:18;;;;;;;8.93;3.53;;;9.10;74.60;;;;;;5035642;28;20026;-76
2022/10/09 06:35:43;;;;;;;7.63;3.60;;;8.90;74.20;;;;;;5035361;28;20029;-76
2022/10/09 06:38:09;;;;;;;7.78;3.72;;;8.90;74.60;;;;;;5035581;28;20617;-76
2022/10/09 06:40:36;;;;;;;6.35;3.95;;;9.00;74.60;;;;;;5035527;28;20022;-76
2022/10/09 06:43:03;;;;;;;6.18;3.40;;;9.00;74.10;;;;;;5035448;28;20414;-77
2022/10/09 06:45:29;;;;;;;9.13;3.75;;;8.80;74.40;;;;;;5035136;28;20056;-77
2022/10/09 06:47:55;;;;;;;8.10;4.50;;;8.80;74.80;;;;;;5035278;28;20025;-77
2022/10/09 06:50:21;;;;;;;9.82;4.30;;;8.50;76.60;;;;;;5035116;28;20075;-78
2022/10/09 06:52:47;;;;;;;10.88;4.75;;;8.50;76.30;;;;;;5035263;28;20382;-78
2022/10/09 06:55:12;;;;;;;9.60;4.45;;;8.60;76.60;;;;;;5035231;28;20022;-77
2022/10/09 06:57:38;;;;;;;8.23;4.22;;;8.60;76.90;;;;;;5035064;28;20030;-77
2022/10/09 07:00:04;;;;;;;8.60;4.28;;;8.60;77.60;;;;;;5034809;28;20025;-77
2022/10/09 07:02:33;;;;;;;8.57;4.30;;;8.70;76.60;;;;;;5034736;28;20025;-77
2022/10/09 07:04:58;;;;;;;10.30;4.47;;;8.80;76.20;;;;;;5035058;28;20109;-76
2022/10/09 07:07:24;;;;;;;7.30;3.88;;;8.90;76.10;;;;;;5034501;28;20116;-77
2022/10/09 07:09:51;;;;;;;5.85;4.10;;;8.90;75.80;;;;;;5035025;28;20482;-78
2022/10/09 07:12:17;;;;;;;5.85;3.60;;;9.00;75.90;;;;;;5034744;28;20040;-78
2022/10/09 07:14:43;;;;;;;6.97;4.47;;;9.10;75.80;;;;;;5034787;28;20029;-75
2022/10/09 07:17:08;;;;;;;7.20;4.30;;;9.20;75.20;;;;;;5034548;28;20056;-76
2022/10/09 07:19:34;;;;;;;5.53;4.10;;;9.30;75.20;;;;;;5034243;28;20076;-76
2022/10/09 07:22:00;;;;;;;8.50;3.67;;;9.40;75.00;;;;;;5034521;28;20045;-76
2022/10/09 07:24:25;;;;;;;7.40;3.53;;;9.40;75.00;;;;;;5034612;28;20501;-77
2022/10/09 07:26:53;;;;;;;7.85;3.60;;;9.40;75.00;;;;;;5034164;28;20020;-78
2022/10/09 07:29:19;;;;;;;9.20;4.13;;;9.40;75.20;;;;;;5034369;28;20450;-78
2022/10/09 07:31:45;;;;;;;9.75;3.28;;;9.40;75.70;;;;;;5033206;28;20053;-78
2022/10/09 07:34:11;;;;;;;10.07;4.05;;;9.60;75.70;;;;;;5033911;28;20029;-78
2022/10/09 07:36:36;;;;;;;9.38;3.65;;;9.70;75.60;;;;;;5034360;28;20025;-77
2022/10/09 07:39:03;;;;;;;7.60;4.50;;;9.90;75.40;;;;;;5035420;28;20033;-77
2022/10/09 07:41:29;;;;;;;7.78;4.45;;;10.10;78.20;;;;;;5035382;28;20055;-77
2022/10/09 07:43:55;;;;;;;8.82;4.03;;;10.40;76.30;;;;;;5034814;28;20406;-77
2022/10/09 07:46:22;;;;;;;6.78;3.72;;;10.60;75.70;;;;;;5034171;28;20040;-77
2022/10/09 07:48:49;;;;;;;6.82;3.92;;;10.70;74.90;;;;;;5033862;28;20095;-77
2022/10/09 07:51:20;;;;;;;9.45;3.65;;;10.80;74.50;;;;;;5034216;28;20474;-77
2022/10/09 07:53:46;;;;;;;4.30;3.08;;;11.00;74.20;;;;;;5033584;28;20038;-78
2022/10/09 07:56:20;;;;;;;8.88;3.67;;;11.10;73.50;;;;;;5035153;28;20028;-77
2022/10/09 07:58:57;;;;;;;8.25;3.75;;;11.30;73.30;;;;;;5033917;28;20497;-77
2022/10/09 08:01:23;;;;;;;15.48;3.85;;;11.50;72.60;;;;;;5035993;28;20036;-87
2022/10/09 08:03:49;;;;;;;14.85;4.20;;;11.70;74.00;;;;;;5033869;28;20075;-83
2022/10/09 08:06:16;;;;;;;9.18;3.63;;;11.80;74.20;;;;;;5033996;28;20401;-81
2022/10/09 08:08:42;;;;;;;7.22;3.22;;;12.20;72.20;;;;;;5033363;28;20048;-82
2022/10/09 08:11:28;;;;;;;10.45;4.35;;;12.50;71.50;;;;;;5033604;28;20417;-80
2022/10/09 08:13:54;;;;;;;9.93;3.63;;;12.80;66.70;;;;;;5032177;28;20028;-81
2022/10/09 08:16:21;;;;;;;8.18;4.35;;;12.80;68.80;;;;;;5033562;28;20035;-87
2022/10/09 08:18:47;;;;;;;8.40;3.78;;;13.10;67.60;;;;;;5033622;28;20068;-85
2022/10/09 08:21:17;;;;;;;8.88;3.80;;;13.30;66.90;;;;;;5033508;28;20021;-86
2022/10/09 08:23:45;;;;;;;8.35;2.90;;;13.50;66.60;;;;;;5034228;28;20465;-85
2022/10/09 08:26:13;;;;;;;6.18;2.97;;;13.70;65.20;;;;;;5035751;28;20025;-84
2022/10/09 08:28:39;;;;;;;6.70;3.13;;;13.90;64.70;;;;;;5034629;28;20045;-82
2022/10/09 08:31:12;;;;;;;4.53;3.03;;;13.90;64.10;;;;;;5034818;28;20033;-82
2022/10/09 08:33:41;;;;;;;7.15;3.08;;;14.10;63.40;;;;;;5034041;28;20060;-83
2022/10/09 08:36:09;;;;;;;5.43;2.70;;;14.10;63.50;;;;;;5050346;28;20474;-84
2022/10/09 08:38:36;;;;;;;7.05;3.03;;;14.40;64.00;;;;;;5033150;28;20095;-77
2022/10/09 08:41:23;;;;;;;6.20;3.08;;;14.20;61.80;;;;;;5034685;28;20026;-80
2022/10/09 08:44:03;;;;;;;5.80;2.97;;;13.70;63.80;;;;;;5032800;28;20432;-77
2022/10/09 08:46:42;;;;;;;7.18;3.22;;;13.50;65.40;;;;;;5032095;28;20018;-76
2022/10/09 08:49:21;;;;;;;7.88;3.15;;;13.50;65.50;;;;;;5045890;28;20414;-78
2022/10/09 08:51:47;;;;;;;7.93;3.08;;;13.60;65.10;;;;;;5033671;28;20033;-78
2022/10/09 08:54:34;;;;;;;7.13;2.70;;;13.60;65.30;;;;;;5049638;28;20199;-77
2022/10/09 08:57:05;;;;;;;4.50;2.78;;;13.50;66.00;;;;;;5049730;28;20036;-77
2022/10/09 08:59:31;;;;;;;9.98;3.00;;;13.70;66.10;;;;;;5049449;28;20478;-77
2022/10/09 09:02:02;;;;;;;6.05;3.25;;;13.90;66.40;;;;;;5032783;28;20026;-78
2022/10/09 09:04:37;;;;;;;6.22;2.67;;;14.00;64.80;;;;;;5032082;28;20025;-78
2022/10/09 09:07:45;;;;;;;6.57;2.83;;;14.10;65.20;;;;;;5037473;28;20087;-77
2022/10/09 09:10:29;;;;;;;3.67;2.30;;;14.30;64.40;;;;;;5032658;28;20037;-78
2022/10/09 09:13:19;;;;;;;4.15;1.95;;;14.60;64.20;;;;;;5032757;28;20025;-77
2022/10/09 09:16:05;;;;;;;6.28;2.20;;;14.90;62.60;;;;;;5021442;28;20034;-77
2022/10/09 09:18:37;;;;;;;3.78;1.80;;;15.30;60.00;;;;;;5031565;28;20148;-78
2022/10/09 09:21:14;;;;;;;10.05;1.85;;;15.70;59.20;;;;;;5047797;28;20017;-78
2022/10/09 09:23:45;;;;;;;5.05;1.25;;;15.90;59.00;;;;;;5032120;28;20049;-78
2022/10/09 09:26:19;;;;;;;6.10;1.73;;;15.90;57.10;;;;;;5032572;28;20060;-77
2022/10/09 09:28:50;;;;;;;6.03;1.60;;;15.90;56.40;;;;;;5032258;28;20355;-76
2022/10/09 09:31:35;;;;;;;3.92;1.48;;;16.10;57.10;;;;;;5032389;28;20037;-77
2022/10/09 09:34:10;;;;;;;4.60;1.55;;;16.20;55.60;;;;;;5031820;28;20021;-76
2022/10/09 09:36:50;;;;;;;8.40;1.73;;;16.40;55.20;;;;;;5029797;28;20487;-76
2022/10/09 09:39:15;;;;;;;5.30;1.48;;;16.40;53.60;;;;;;5029426;28;20037;-78
2022/10/09 09:41:42;;;;;;;7.13;1.45;;;16.20;53.10;;;;;;5031280;28;20025;-77
2022/10/09 09:44:10;;;;;;;5.10;1.80;;;16.20;53.80;;;;;;5034542;28;20022;-77
2022/10/09 09:46:37;;;;;;;6.85;1.77;;;16.10;53.60;;;;;;5032124;28;20021;-77
2022/10/09 09:49:17;;;;;;;8.02;1.90;;;16.00;53.80;;;;;;5032027;28;20076;-77
2022/10/09 09:51:44;;;;;;;8.30;1.50;;;16.00;53.50;;;;;;5033485;28;20044;-78
2022/10/09 09:54:22;;;;;;;6.28;1.52;;;16.10;53.60;;;;;;5032019;28;20033;-78
2022/10/09 09:56:49;;;;;;;3.60;1.10;;;16.10;54.20;;;;;;5031525;28;20028;-78
2022/10/09 09:59:35;;;;;;;5.95;1.33;;;16.40;54.00;;;;;;5031311;28;20038;-78
2022/10/09 10:02:04;;;;;;;5.53;1.40;;;16.70;51.30;;;;;;5048821;28;20117;-78
2022/10/09 10:04:30;;;;;;;5.38;1.30;;;17.00;50.70;;;;;;5031970;28;20045;-78
2022/10/09 10:06:56;;;;;;;4.55;1.50;;;17.40;50.20;;;;;;5048409;28;20064;-77
2022/10/09 10:09:22;;;;;;;4.90;1.27;;;17.70;49.20;;;;;;5048252;28;20032;-77
2022/10/09 10:11:57;;;;;;;3.90;1.25;;;17.90;47.80;;;;;;5031810;28;20512;-77
2022/10/09 10:14:24;;;;;;;7.72;1.55;;;18.00;47.00;;;;;;5048282;28;20039;-77
2022/10/09 10:16:52;;;;;;;4.05;0.98;;;18.00;46.40;;;;;;5048478;28;20026;-77
2022/10/09 10:19:29;;;;;;;3.63;1.17;;;18.10;46.50;;;;;;5048153;28;20037;-77
2022/10/09 10:22:01;;;;;;;3.83;1.40;;;18.30;46.30;;;;;;5048159;28;20048;-77
2022/10/09 10:24:31;;;;;;;5.85;1.45;;;18.50;45.90;;;;;;5048111;28;20026;-77
2022/10/09 10:27:11;;;;;;;2.67;0.90;;;18.60;44.10;;;;;;5032732;28;20022;-77
2022/10/09 10:29:41;;;;;;;3.90;1.05;;;18.90;44.60;;;;;;5023404;28;20072;-77
2022/10/09 10:32:25;;;;;;;4.22;1.40;;;19.00;42.90;;;;;;5028021;28;20025;-76
2022/10/09 10:34:56;;;;;;;3.30;1.10;;;19.20;43.30;;;;;;5029193;28;20055;-76
2022/10/09 10:37:55;;;;;;;4.93;1.20;;;19.50;42.30;;;;;;5048199;28;20096;-77
2022/10/09 10:40:48;;;;;;;4.13;1.55;;;19.70;42.10;;;;;;5031377;28;20474;-77
2022/10/09 10:43:19;;;;;;;4.10;1.02;;;20.00;41.10;;;;;;5048275;28;20025;-76
2022/10/09 10:45:56;;;;;;;2.67;1.27;;;19.90;41.40;;;;;;5031682;28;20079;-76
2022/10/09 10:48:28;;;;;;;3.60;0.95;;;20.10;40.90;;;;;;5048164;28;20029;-77
2022/10/09 10:51:06;;;;;;;4.38;1.23;;;19.90;39.50;;;;;;5047761;28;20021;-75
2022/10/09 10:53:44;;;;;;;5.55;1.80;;;19.60;40.20;;;;;;5047810;28;20461;-76
2022/10/09 10:56:22;;;;;;;4.38;1.35;;;19.50;41.90;;;;;;5031327;28;20017;-82
2022/10/09 10:59:19;;;;;;;5.53;1.75;;;19.70;40.80;;;;;;5048066;28;20038;-81
2022/10/09 11:02:17;;;;;;;4.18;1.23;;;19.80;40.30;;;;;;5048026;28;20095;-81
2022/10/09 11:05:00;;;;;;;4.65;1.40;;;20.00;39.40;;;;;;5031023;28;20033;-79
2022/10/09 11:07:50;;;;;;;2.03;1.05;;;20.00;39.70;;;;;;5033645;28;20030;-78
2022/10/09 11:10:37;;;;;;;2.70;0.82;;;20.10;40.00;;;;;;5051711;28;20041;-78
2022/10/09 11:13:17;;;;;;;2.90;1.30;;;20.40;40.00;;;;;;5051599;28;20122;-78
2022/10/09 11:16:01;;;;;;;4.60;2.47;;;20.50;39.60;;;;;;5051803;28;20028;-80
2022/10/09 11:18:48;;;;;;;4.93;1.63;;;20.70;39.50;;;;;;5051612;28;20099;-77
2022/10/09 11:21:24;;;;;;;5.25;1.50;;;21.00;39.10;;;;;;5034384;28;20025;-81
2022/10/09 11:24:18;;;;;;;3.63;1.40;;;21.20;40.10;;;;;;5035985;28;20037;-80
2022/10/09 11:26:56;;;;;;;5.80;1.48;;;21.60;38.20;;;;;;5051564;28;20022;-79
2022/10/09 11:29:28;;;;;;;4.28;1.13;;;21.60;38.60;;;;;;5050643;28;20092;-79
2022/10/09 11:32:15;;;;;;;4.15;1.10;;;21.90;36.70;;;;;;5050521;28;20032;-77
2022/10/09 11:34:47;;;;;;;3.08;1.02;;;22.00;35.60;;;;;;5032116;28;20068;-82
2022/10/09 11:37:23;;;;;;;4.25;1.40;;;22.10;35.10;;;;;;5041968;28;20398;-80
2022/10/09 11:39:48;;;;;;;4.65;1.60;;;22.20;35.20;;;;;;5034226;28;20068;-83
2022/10/09 11:42:19;;;;;;;5.15;2.53;;;22.40;34.90;;;;;;5033955;28;20084;-80
2022/10/09 11:45:10;;;;;;;4.30;2.28;;;22.50;34.70;;;;;;5033825;28;20030;-78
2022/10/09 11:48:07;;;;;;;3.00;1.13;;;22.60;33.80;;;;;;5029890;28;20052;-78
2022/10/09 11:50:47;;;;;;;1.80;0.90;;;22.40;34.20;;;;;;5034166;28;20386;-78
2022/10/09 11:53:20;;;;;;;4.13;2.70;;;22.20;35.00;;;;;;5034109;28;20026;-79
2022/10/09 11:55:47;;;;;;;4.93;1.52;;;22.30;35.40;;;;;;5034123;28;20025;-78
2022/10/09 11:58:21;;;;;;;2.08;0.85;;;22.40;34.30;;;;;;5033916;28;20402;-78
2022/10/09 12:00:50;;;;;;;2.58;1.00;;;22.40;34.50;;;;;;5033752;28;20405;-81
2022/10/09 12:03:31;;;;;;;3.67;1.00;;;22.60;34.50;;;;;;5033934;28;20049;-79
2022/10/09 12:06:12;;;;;;;1.85;1.00;;;22.70;34.10;;;;;;5033931;28;20032;-80
2022/10/09 12:09:06;;;;;;;1.75;1.10;;;22.80;34.20;;;;;;5033730;28;20474;-79
2022/10/09 12:11:33;;;;;;;1.00;0.80;;;23.10;34.00;;;;;;5025593;28;20053;-78
2022/10/09 12:14:03;;;;;;;3.05;1.17;;;23.30;33.30;;;;;;5034947;28;20052;-78
2022/10/09 12:16:43;;;;;;;2.20;0.93;;;23.80;32.30;;;;;;5033700;28;20096;-79
2022/10/09 12:19:22;;;;;;;2.60;1.10;;;23.50;32.30;;;;;;5032662;28;20046;-78
2022/10/09 12:21:56;;;;;;;4.70;1.30;;;23.00;33.30;;;;;;5033401;28;20497;-78
2022/10/09 12:24:26;;;;;;;2.78;1.27;;;22.50;35.00;;;;;;5033611;28;20026;-79
2022/10/09 12:26:55;;;;;;;4.32;1.10;;;21.80;36.00;;;;;;5033384;28;20022;-78
2022/10/09 12:29:44;;;;;;;6.70;1.42;;;21.10;37.90;;;;;;5033388;28;20029;-78
2022/10/09 12:32:32;;;;;;;3.50;1.63;;;20.60;38.90;;;;;;5033530;28;20120;-81
2022/10/09 12:35:00;;;;;;;2.75;1.17;;;20.40;39.80;;;;;;5033478;28;20052;-78
2022/10/09 12:37:35;;;;;;;5.80;1.42;;;20.50;40.40;;;;;;5033492;28;20055;-78
2022/10/09 12:40:14;;;;;;;2.45;1.20;;;20.60;40.10;;;;;;5035251;28;20044;-80
2022/10/09 12:42:42;;;;;;;3.65;1.30;;;20.20;40.70;;;;;;5034050;28;20029;-80
2022/10/09 12:45:29;;;;;;;4.43;1.40;;;20.20;41.50;;;;;;5033323;28;20029;-78
2022/10/09 12:47:59;;;;;;;3.78;1.48;;;20.40;40.90;;;;;;5033314;28;20371;-79
2022/10/09 12:50:34;;;;;;;5.57;1.60;;;20.20;41.10;;;;;;5049726;28;20121;-80
2022/10/09 12:53:05;;;;;;;6.45;1.98;;;19.90;41.80;;;;;;5033133;28;20108;-78
2022/10/09 12:55:32;;;;;;;8.93;2.35;;;19.80;42.60;;;;;;5033055;28;20435;-80
2022/10/09 12:58:23;;;;;;;3.65;1.70;;;19.80;42.80;;;;;;5032559;28;20037;-80
2022/10/09 13:01:13;;;;;;;4.50;1.88;;;19.70;43.20;;;;;;5032864;28;20096;-81
2022/10/09 13:03:58;;;;;;;3.80;1.85;;;19.60;42.90;;;;;;5032708;28;20022;-80
2022/10/09 13:06:32;;;;;;;4.53;2.13;;;19.20;44.30;;;;;;5033033;28;20079;-80
2022/10/09 13:09:01;;;;;;;5.13;2.25;;;18.90;45.50;;;;;;5032837;28;20087;-80